createdAt,value
2023-04-03T00:08:15.859Z,100876.09
2023-04-03T00:18:19.578Z,100873.19
2023-04-03T00:28:24.143Z,100877.16
2023-04-03T00:38:29.544Z,100874.35
2023-04-03T00:48:41.924Z,100878.73
2023-04-03T00:58:52.434Z,100883.27
2023-04-03T01:08:57.604Z,100886.73
2023-04-03T01:19:02.865Z,100887.66
2023-04-03T01:29:08.615Z,100903.52
2023-04-03T01:39:14.152Z,100912.10
2023-04-03T01:49:19.394Z,100918.61
2023-04-03T01:59:23.354Z,100915.48
2023-04-03T02:09:31.186Z,100923.48
2023-04-03T02:19:35.320Z,100934.80
2023-04-03T02:29:39.645Z,100946.06
2023-04-03T02:39:45.312Z,100953.08
2023-04-03T02:49:49.337Z,100960.35
2023-04-03T02:59:53.080Z,100966.43
2023-04-03T03:10:00.182Z,100965.48
2023-04-03T03:20:05.435Z,100983.44
2023-04-03T03:30:12.436Z,100985.27
2023-04-03T03:40:16.639Z,100988.73
2023-04-03T03:50:26.125Z,100985.75
2023-04-03T04:00:30.276Z,100989.11
2023-04-03T04:10:39.890Z,100996.65
2023-04-03T04:20:48.382Z,100993.30
2023-04-03T04:30:53.798Z,101002.44
2023-04-03T04:40:58.396Z,101008.43
2023-04-03T04:51:02.794Z,101016.96
2023-04-03T05:01:11.648Z,101026.70
2023-04-03T05:11:34.218Z,101033.98
2023-04-03T05:21:38.180Z,101035.41
2023-04-03T05:31:52.085Z,101044.35
2023-04-03T05:41:56.041Z,101050.41
2023-04-03T05:51:59.892Z,101059.19
2023-04-03T06:02:06.298Z,101065.00
2023-04-03T06:12:10.941Z,101074.48
2023-04-03T06:22:16.007Z,101069.04
2023-04-03T06:32:19.746Z,101078.25
2023-04-03T06:42:24.168Z,101080.09
2023-04-03T06:52:37.133Z,101091.70
2023-04-03T07:02:41.423Z,101091.76
2023-04-03T07:12:45.318Z,101098.39
2023-04-03T07:22:49.071Z,101108.63
2023-04-03T07:32:52.816Z,101114.69
2023-04-03T07:42:57.745Z,101123.88
2023-04-03T07:53:02.050Z,101115.29
2023-04-03T08:03:09.027Z,101113.33
2023-04-03T08:13:14.091Z,101119.89
2023-04-03T08:23:20.080Z,101126.52
2023-04-03T08:33:25.074Z,101107.19
2023-04-03T08:43:44.505Z,101119.07
2023-04-03T08:53:58.370Z,101119.54
2023-04-03T09:04:03.499Z,101115.19
2023-04-03T09:14:27.238Z,101122.27
2023-04-03T09:24:33.973Z,101115.38
2023-04-03T09:34:38.020Z,101110.02
2023-04-03T09:44:41.851Z,101097.43
2023-04-03T09:54:45.973Z,101112.88
2023-04-03T10:05:06.236Z,101100.11
2023-04-03T10:15:21.394Z,101088.52
2023-04-03T10:25:47.748Z,101092.09
2023-04-03T10:36:13.163Z,101076.84
2023-04-03T10:46:35.703Z,101081.14
2023-04-03T10:57:04.621Z,101071.10
2023-04-03T11:07:24.624Z,101050.70
2023-04-03T11:17:39.631Z,101050.38
2023-04-03T11:27:50.914Z,101047.79
2023-04-03T11:37:56.022Z,101053.81
2023-04-03T11:48:24.521Z,101042.76
2023-04-03T11:58:34.207Z,101032.86
2023-04-03T12:08:42.442Z,101034.44
2023-04-03T12:18:59.692Z,101020.67
2023-04-03T12:29:14.188Z,101032.73
2023-04-03T12:40:22.345Z,101024.27
2023-04-03T12:50:31.601Z,101026.39
2023-04-03T13:00:40.089Z,101010.11
2023-04-03T13:11:02.179Z,101013.70
2023-04-03T13:21:09.936Z,101012.73
2023-04-03T13:31:15.321Z,100988.58
2023-04-03T13:41:25.093Z,101001.05
